Terminal Aerodrome Forecast
Issued by NWS Tallahassee, FL

Home | Current Version | Previous Version | Text Only | Print | Product List | Glossary On
Versions: 1 2 3 4 5 6 7 8 9 10 11 12 13 14 15 16 17 18 19 20
000
FTUS42 KTAE 032332
TAFTLH
TAF
KTLH 032332Z 0400/0424 20008KT P6SM FEW070 BKN250
     FM040400 00000KT P6SM FEW250
     FM041400 24007KT P6SM SCT035
     FM041800 22008KT P6SM VCTS BKN050CB
      TEMPO 0419/0422 2SM TSRA=

USA.gov is the U.S. government's official web portal to all federal, state and local government web resources and services.